Latest Weather Observations for Noonamah

IDD60901

Issued at 11:05 am CST Wednesday 22 October 2014 (issued every 10 minutes, with the page automatically refreshed every 10 minutes)

About weather observations | Map of Darwin area stations | Latest observations for Darwin area | Other Formats
Station Details ID: 014314 Name: NOONAMAH AIRSTRIP Lat: -12.61 Lon: 131.05 Height: 17.5 m
Data from the previous 72 hours. | See also: Recent months for locations in Northern Territory
Date/Time
CST
Tmp

°C
App
Tmp
°C
Dew
Point
°C
Rel
Hum
%
Delta-T

°C
Wind Press
QNH
hPa
Press
MSL
hPa
Rain
since
9 am
mm
Dir
 
Spd
km/h
Gust
km/h
Spd
kts
Gust
kts
22/11:00am 32.7 33.3 18.5 43 9.2 E 13 19 7 10 1014.1 1013.9 0.0
22/10:30am 32.2 33.7 19.8 48 8.2 ESE 11 20 6 11 1014.6 1014.4 0.0
22/10:00am 31.3 32.8 20.6 53 7.1 E 13 19 7 10 1014.9 1014.7 0.0
22/09:30am 29.6 31.7 20.2 57 6.2 NE 9 19 5 10 1015.0 1014.8 0.0
22/09:00am 29.4 32.8 21.6 63 5.2 E 6 13 3 7 1014.6 1014.4 0.0
22/08:30am 28.8 32.2 21.6 65 4.8 N 6 9 3 5 1014.4 1014.2 0.0
22/08:00am 27.5 31.8 22.0 72 3.7 WNW 2 4 1 2 1014.4 1014.2 0.0
22/07:30am 25.4 29.9 21.5 79 2.6 CALM 0 0 0 0 1013.9 1013.7 0.0
22/07:00am 24.3 28.8 21.6 85 1.8 CALM 0 0 0 0 1013.6 1013.4 0.0
22/06:30am 23.0 27.2 20.9 88 1.4 CALM 0 0 0 0 1013.3 1013.1 0.0
22/06:00am 23.3 27.1 21.0 87 1.5 SW 2 4 1 2 1013.3 1013.1 0.0
22/05:30am 23.6 27.5 21.1 86 1.6 NNW 2 4 1 2 1012.9 1012.7 0.0
22/05:00am 24.0 28.2 20.9 83 2.0 CALM 0 0 0 0 1013.0 1012.8 0.0
22/04:30am 24.0 27.3 20.7 82 2.2 N 4 6 2 3 1012.7 1012.5 0.0
22/04:00am 24.8 28.3 21.1 80 2.4 ENE 4 6 2 3 1013.0 1012.8 0.0
22/03:30am 25.2 28.4 21.3 79 2.6 ENE 6 9 3 5 1012.8 1012.6 0.0
22/03:00am 25.7 29.6 21.1 76 3.0 E 2 6 1 3 1012.8 1012.6 0.0
22/02:30am 26.3 29.8 21.1 73 3.4 N 4 6 2 3 1012.6 1012.4 0.0
22/02:00am 26.5 30.2 20.8 71 3.8 N 2 4 1 2 1013.1 1012.9 0.0
22/01:30am 26.8 30.3 21.1 71 3.8 N 4 6 2 3 1013.3 1013.1 0.0
22/01:00am 26.5 30.3 21.7 75 3.2 N 4 7 2 4 1013.7 1013.5 0.0
22/12:30am 25.7 28.6 20.7 74 3.3 N 6 7 3 4 1014.0 1013.8 0.0
22/12:00am 25.0 27.9 18.2 66 4.3 CALM 0 2 0 1 1014.2 1014.0 0.0
 
Date/Time
CST
Tmp

°C
App
Tmp
°C
Dew
Point
°C
Rel
Hum
%
Delta-T

°C
Wind Press
QNH
hPa
Press
MSL
hPa
Rain
since
9 am
mm
Dir
 
Spd
km/h
Gust
km/h
Spd
kts
Gust
kts
21/11:30pm 25.6 28.5 18.3 64 4.6 CALM 0 4 0 2 1014.3 1014.1 0.0
21/11:00pm 26.5 29.0 18.1 60 5.3 SE 2 6 1 3 1014.5 1014.3 0.0
21/10:30pm 26.4 29.2 18.0 60 5.3 CALM 0 0 0 0 1014.4 1014.2 0.0
21/10:00pm 26.4 29.2 18.0 60 5.3 CALM 0 0 0 0 1014.1 1013.9 0.0
21/09:30pm 26.6 28.2 17.9 59 5.5 NE 6 7 3 4 1013.5 1013.3 0.0
21/09:00pm 28.0 31.5 19.5 60 5.5 CALM 0 0 0 0 1013.0 1012.8 0.0
21/08:30pm 28.8 31.9 19.4 56 6.1 W 2 4 1 2 1012.6 1012.4 0.0
21/08:00pm 29.2 31.7 19.8 57 6.2 W 6 9 3 5 1012.0 1011.8 0.0
21/07:30pm 30.1 31.7 18.2 49 7.6 W 7 11 4 6 1011.6 1011.4 0.0
21/07:00pm 31.0 31.8 17.3 43 8.7 WNW 9 13 5 7 1011.2 1011.0 0.0
21/06:30pm 31.4 32.3 18.4 46 8.4 W 11 17 6 9 1010.9 1010.7 0.0
21/06:00pm 32.1 33.2 19.7 48 8.2 W 13 20 7 11 1010.5 1010.3 0.0
21/05:30pm 34.1 34.4 16.9 36 11.0 NW 11 17 6 9 1010.1 1009.9 0.0
21/05:00pm 34.4 35.5 17.2 36 11.0 NNW 7 13 4 7 1009.8 1009.6 0.0
21/04:30pm 36.3 37.4 17.0 32 12.4 SE 7 13 4 7 1009.8 1009.6 0.0
21/04:00pm 35.8 33.8 11.4 23 14.5 E 13 20 7 11 1009.8 1009.6 0.0
21/03:30pm 36.3 34.2 11.2 22 14.9 SSE 13 20 7 11 1009.9 1009.7 0.0
21/03:00pm 37.0 35.5 11.8 22 15.1 ESE 11 19 6 10 1010.2 1010.0 0.0
21/02:30pm 35.8 35.5 12.7 25 14.0 SE 6 15 3 8 1010.4 1010.2 0.0
21/02:00pm 36.5 34.1 12.7 24 14.4 ESE 17 24 9 13 1011.2 1011.0 0.0
21/01:30pm 36.7 35.7 13.5 25 14.2 SE 11 30 6 16 1011.9 1011.7 0.0
21/01:00pm 35.8 35.0 13.9 27 13.5 E 11 22 6 12 1012.6 1012.4 0.0
21/12:30pm 35.2 33.6 12.8 26 13.5 ESE 13 24 7 13 1013.4 1013.2 0.0
21/12:00pm 34.5 32.7 13.3 27 12.9 ENE 15 26 8 14 1014.1 1013.9 0.0
21/11:30am 34.0 32.3 13.5 29 12.4 E 15 28 8 15 1014.6 1014.4 0.0
21/11:00am 33.4 32.4 14.5 32 11.6 E 13 22 7 12 1014.9 1014.7 0.0
21/10:30am 32.2 32.3 16.5 39 9.9 E 11 22 6 12 1015.4 1015.2 0.0
21/10:00am 30.8 31.4 17.8 45 8.3 ENE 11 20 6 11 1015.7 1015.5 0.0
21/09:30am 31.1 30.5 18.5 47 8.1 ESE 19 28 10 15 1016.0 1015.8 0.0
21/09:00am 29.4 31.7 21.4 62 5.4 E 11 17 6 9 1015.8 1015.6 0.0
21/08:30am 28.9 32.5 22.4 68 4.4 ENE 7 15 4 8 1015.4 1015.2 0.0
21/08:00am 27.1 30.9 21.6 72 3.7 ENE 4 6 2 3 1014.8 1014.6 0.0
21/07:30am 25.8 30.5 21.9 79 2.6 CALM 0 0 0 0 1014.6 1014.4 0.0
21/07:00am 24.2 28.8 21.7 86 1.7 CALM 0 0 0 0 1014.4 1014.2 0.0
21/06:30am 23.3 27.5 21.0 87 1.5 CALM 0 0 0 0 1014.0 1013.8 0.0
21/06:00am 23.4 27.6 20.9 86 1.6 CALM 0 0 0 0 1013.8 1013.6 0.0
21/05:30am 23.5 27.7 21.0 86 1.6 CALM 0 0 0 0 1013.5 1013.3 0.0
21/05:00am 23.8 28.1 21.1 85 1.8 CALM 0 0 0 0 1013.4 1013.2 0.0
21/04:30am 24.1 28.3 21.0 83 2.0 CALM 0 0 0 0 1013.2 1013.0 0.0
21/04:00am 24.2 28.4 20.9 82 2.2 CALM 0 0 0 0 1013.2 1013.0 0.0
21/03:30am 24.6 29.0 21.3 82 2.2 CALM 0 0 0 0 1013.1 1012.9 0.0
21/03:00am 24.7 29.0 21.2 81 2.3 CALM 0 0 0 0 1013.1 1012.9 0.0
21/02:30am 25.1 29.2 21.6 81 2.3 ENE 2 4 1 2 1013.3 1013.1 0.0
21/02:00am 24.8 28.4 21.3 81 2.3 NE 4 6 2 3 1013.5 1013.3 0.0
21/01:30am 25.1 28.4 21.4 80 2.4 NE 6 7 3 4 1013.5 1013.3 0.0
21/01:00am 25.4 28.8 20.9 76 3.0 NNE 4 4 2 2 1013.7 1013.5 0.0
21/12:30am 25.7 29.3 20.5 73 3.4 NE 2 4 1 2 1013.8 1013.6 0.0
21/12:00am 26.1 29.1 20.0 69 4.0 N 4 6 2 3 1013.9 1013.7 0.0
 
Date/Time
CST
Tmp

°C
App
Tmp
°C
Dew
Point
°C
Rel
Hum
%
Delta-T

°C
Wind Press
QNH
hPa
Press
MSL
hPa
Rain
since
9 am
mm
Dir
 
Spd
km/h
Gust
km/h
Spd
kts
Gust
kts
20/11:30pm 26.4 28.8 18.8 63 4.9 NE 4 7 2 4 1013.9 1013.7 0.0
20/11:00pm 26.9 28.7 18.2 59 5.5 E 6 9 3 5 1013.7 1013.5 0.0
20/10:30pm 26.6 28.0 17.4 57 5.8 ESE 6 7 3 4 1013.6 1013.4 0.0
20/10:00pm 26.8 28.3 17.6 57 5.8 ENE 6 6 3 3 1013.4 1013.2 0.0
20/09:30pm 27.9 29.8 17.7 53 6.5 NE 4 6 2 3 1013.0 1012.8 0.0
20/09:00pm 29.1 31.5 17.9 50 7.1 NE 2 7 1 4 1012.6 1012.4 0.0
20/08:30pm 29.8 31.6 18.3 50 7.4 WNW 6 13 3 7 1012.2 1012.0 0.0
20/08:00pm 29.5 30.5 17.7 49 7.5 W 9 9 5 5 1011.6 1011.4 0.0
20/07:30pm 30.1 31.2 17.2 46 8.2 W 7 15 4 8 1011.1 1010.9 0.0
20/07:00pm 30.8 31.5 16.0 40 9.2 W 7 15 4 8 1010.5 1010.3 0.0
20/06:30pm 31.5 31.6 16.6 40 9.4 WNW 11 19 6 10 1010.1 1009.9 0.0
20/06:00pm 32.3 32.6 17.0 40 9.7 NW 11 22 6 12 1009.6 1009.4 0.0
20/05:30pm 33.3 33.6 17.1 38 10.4 NNW 11 17 6 9 1009.0 1008.8 0.0
20/05:00pm 33.6 34.2 17.7 38 10.2 NW 11 20 6 11 1008.6 1008.4 0.0
20/04:30pm 33.7 34.5 19.0 42 9.7 N 13 22 7 12 1008.5 1008.3 0.0
20/04:00pm 37.0 33.7 7.9 17 16.5 SE 15 20 8 11 1008.5 1008.3 0.0
20/03:30pm 38.3 35.9 11.4 20 16.1 SE 15 22 8 12 1008.7 1008.5 0.0
20/03:00pm 37.2 34.9 11.9 22 15.2 ESE 15 28 8 15 1009.0 1008.8 0.0
20/02:30pm 37.5 34.4 11.5 21 15.6 SSE 19 26 10 14 1009.4 1009.2 0.0
20/02:00pm 37.4 34.3 12.1 22 15.2 SE 20 39 11 21 1010.0 1009.8 0.0
20/01:30pm 36.2 33.3 12.4 24 14.4 ESE 19 22 10 12 1010.7 1010.5 0.0
20/01:00pm 36.0 35.4 14.6 27 13.3 SSE 11 30 6 16 1011.5 1011.3 0.0
20/12:30pm 34.1 33.6 16.0 34 11.4 SE 13 20 7 11 1012.4 1012.2 0.0
20/12:00pm 34.5 34.6 15.4 32 11.9 ESE 9 19 5 10 1012.7 1012.5 0.0
20/11:30am 34.2 34.7 16.5 34 11.2 SSE 9 17 5 9 1013.3 1013.1 0.0
20/11:00am 33.2 32.9 16.5 36 10.6 E 13 26 7 14 1013.8 1013.6 0.0
20/10:30am 32.8 32.6 16.6 38 10.2 E 13 20 7 11 1014.3 1014.1 0.0
20/10:00am 30.9 32.9 20.8 55 6.7 E 11 20 6 11 1014.7 1014.5 0.0
20/09:30am 30.0 32.3 21.4 60 5.8 ENE 11 17 6 9 1014.8 1014.6 0.0
20/09:00am 29.9 33.0 22.1 63 5.3 E 9 15 5 8 1014.6 1014.4 0.0
20/08:30am 28.9 32.2 21.9 66 4.7 E 7 13 4 7 1014.5 1014.3 0.0
20/08:00am 27.8 31.5 22.5 73 3.6 E 7 9 4 5 1014.3 1014.1 0.0
20/07:30am 26.9 30.8 22.5 77 3.0 E 6 9 3 5 1014.0 1013.8 0.0
20/07:00am 26.0 30.8 22.9 83 2.1 ESE 2 4 1 2 1013.7 1013.5 0.0
20/06:30am 25.4 30.4 22.5 84 2.0 CALM 0 0 0 0 1013.4 1013.2 0.0
20/06:00am 25.6 30.8 22.9 85 1.8 CALM 0 0 0 0 1013.2 1013.0 0.0
20/05:30am 25.3 30.0 22.6 85 1.8 S 2 4 1 2 1012.9 1012.7 0.0
20/05:00am 25.7 30.0 22.6 83 2.1 E 4 7 2 4 1012.6 1012.4 0.0
20/04:30am 26.0 31.1 22.7 82 2.2 CALM 0 6 0 3 1012.5 1012.3 0.0
20/04:00am 26.2 30.9 22.7 81 2.4 N 2 4 1 2 1012.5 1012.3 0.0
20/03:30am 26.3 31.1 22.8 81 2.4 ENE 2 7 1 4 1012.5 1012.3 0.0
20/03:00am 26.5 31.8 23.0 81 2.4 CALM 0 0 0 0 1012.2 1012.0 0.0
20/02:30am 26.9 31.0 23.2 80 2.5 ENE 7 13 4 7 1012.3 1012.1 0.0
20/02:00am 27.7 32.5 23.5 78 2.9 ENE 4 7 2 4 1012.5 1012.3 0.0
20/01:30am 28.1 32.3 23.2 74 3.4 NNE 6 7 3 4 1012.5 1012.3 0.0
20/01:00am 28.0 32.9 23.6 77 3.0 N 4 6 2 3 1012.9 1012.7 0.0
20/12:30am 28.0 32.5 22.9 74 3.5 N 4 6 2 3 1013.1 1012.9 0.0
20/12:00am 27.6 31.3 22.3 73 3.6 NNE 6 7 3 4 1013.2 1013.0 0.0
 
Date/Time
CST
Tmp

°C
App
Tmp
°C
Dew
Point
°C
Rel
Hum
%
Delta-T

°C
Wind Press
QNH
hPa
Press
MSL
hPa
Rain
since
9 am
mm
Dir
 
Spd
km/h
Gust
km/h
Spd
kts
Gust
kts
19/11:30pm 27.9 31.8 22.6 73 3.6 NNE 6 9 3 5 1013.5 1013.3 0.0
19/11:00pm 27.2 30.9 22.2 74 3.4 NE 6 7 3 4 1013.5 1013.3 0.0
19/10:30pm 27.3 31.5 21.8 72 3.7 NNE 2 4 1 2 1013.3 1013.1 0.0
19/10:00pm 27.5 31.6 21.5 70 4.0 NNW 2 4 1 2 1012.9 1012.7 0.0
19/09:30pm 28.2 31.5 21.5 67 4.5 E 6 7 3 4 1012.5 1012.3 0.0
19/09:00pm 28.7 32.3 21.2 64 5.0 NE 4 9 2 5 1012.1 1011.9 0.0
19/08:30pm 28.9 32.3 20.9 62 5.3 N 4 9 2 5 1011.6 1011.4 0.0
19/08:00pm 29.5 32.7 20.4 58 6.0 NNE 4 6 2 3 1011.0 1010.8 0.0
19/07:30pm 29.9 32.7 20.5 57 6.2 NNE 6 11 3 6 1010.5 1010.3 0.0
19/07:00pm 30.6 32.3 20.2 53 6.9 NE 11 20 6 11 1009.8 1009.6 0.0
19/06:30pm 31.7 32.9 19.0 47 8.3 NE 11 20 6 11 1009.4 1009.2 0.0
19/06:00pm 33.2 33.8 18.6 42 9.5 NE 13 22 7 12 1009.0 1008.8 0.0
19/05:30pm 34.2 34.3 19.1 41 9.9 NE 17 26 9 14 1008.5 1008.3 0.0
19/05:00pm 35.3 36.6 19.2 38 10.6 NE 11 20 6 11 1008.2 1008.0 0.0
19/04:30pm 35.6 37.4 18.7 37 11.1 ENE 7 11 4 6 1008.3 1008.1 0.0
19/04:00pm 35.6 37.2 18.2 35 11.4 NNE 7 13 4 7 1008.3 1008.1 0.0
19/03:30pm 35.1 36.1 18.6 37 10.8 ENE 11 17 6 9 1008.7 1008.5 0.0
19/03:00pm 35.3 36.4 17.0 33 11.8 NNE 7 11 4 6 1008.9 1008.7 0.0
19/02:30pm 35.4 36.3 18.5 37 11.1 NNE 11 17 6 9 1009.2 1009.0 0.0
19/02:00pm 35.7 36.2 17.4 33 11.8 NNE 11 24 6 13 1009.4 1009.2 0.0
19/01:30pm 35.6 34.9 15.3 29 12.7 ENE 13 24 7 13 1010.1 1009.9 0.0
19/01:00pm 35.1 35.7 16.9 34 11.6 SE 9 20 5 11 1010.8 1010.6 0.0
19/12:30pm 34.4 34.4 17.2 36 11.0 E 13 20 7 11 1011.5 1011.3 0.0
19/12:00pm 33.7 34.3 17.8 38 10.3 NE 11 30 6 16 1012.0 1011.8 0.0
19/11:30am 33.9 35.5 19.2 42 9.7 NE 9 20 5 11 1012.5 1012.3 0.0

Latest Capital City Observations: Canberra | Sydney | Melbourne | Brisbane | Adelaide | Perth | Hobart | Darwin

Other Formats:

Comma delimited format used in spreadsheet applications
http://www.bom.gov.au/fwo/IDD60901/IDD60901.94105.axf

JavaScript Object Notation format (JSON) in row-major order
http://www.bom.gov.au/fwo/IDD60901/IDD60901.94105.json